sensor_id;sensor_type;location;lat;lon;timestamp;temperature;humidity
15111;DHT22;7656;51.954;7.998;2024-03-23T03:56:06;8.30;99.90
15111;DHT22;7656;51.954;7.998;2024-03-23T04:00:27;8.40;99.90
15111;DHT22;7656;51.954;7.998;2024-03-23T04:04:48;8.40;99.90
15111;DHT22;7656;51.954;7.998;2024-03-23T04:09:09;8.50;99.90
15111;DHT22;7656;51.954;7.998;2024-03-23T04:13:31;8.40;99.90
15111;DHT22;7656;51.954;7.998;2024-03-23T04:17:52;8.50;99.90
15111;DHT22;7656;51.954;7.998;2024-03-23T04:22:13;8.30;99.90
15111;DHT22;7656;51.954;7.998;2024-03-23T04:26:41;7.90;99.90
15111;DHT22;7656;51.954;7.998;2024-03-23T04:31:06;8.10;99.90
15111;DHT22;7656;51.954;7.998;2024-03-23T04:35:27;8.30;99.90
15111;DHT22;7656;51.954;7.998;2024-03-23T04:39:48;8.30;99.90
15111;DHT22;7656;51.954;7.998;2024-03-23T04:44:09;8.40;99.90
15111;DHT22;7656;51.954;7.998;2024-03-23T04:48:31;8.40;99.90
15111;DHT22;7656;51.954;7.998;2024-03-23T04:52:52;8.30;99.90
15111;DHT22;7656;51.954;7.998;2024-03-23T04:57:13;8.20;99.90
15111;DHT22;7656;51.954;7.998;2024-03-23T05:01:41;8.10;99.90
15111;DHT22;7656;51.954;7.998;2024-03-23T05:06:03;8.10;99.90
15111;DHT22;7656;51.954;7.998;2024-03-23T05:10:26;8.10;99.90
15111;DHT22;7656;51.954;7.998;2024-03-23T05:14:47;8.10;99.90
15111;DHT22;7656;51.954;7.998;2024-03-23T05:19:08;8.00;99.90
15111;DHT22;7656;51.954;7.998;2024-03-23T05:23:29;8.00;99.90
15111;DHT22;7656;51.954;7.998;2024-03-23T05:27:50;8.10;99.90
15111;DHT22;7656;51.954;7.998;2024-03-23T05:32:11;8.10;99.90
15111;DHT22;7656;51.954;7.998;2024-03-23T05:36:32;8.10;99.90
15111;DHT22;7656;51.954;7.998;2024-03-23T05:40:58;8.20;99.90
15111;DHT22;7656;51.954;7.998;2024-03-23T05:45:19;8.20;99.90
15111;DHT22;7656;51.954;7.998;2024-03-23T05:49:40;8.10;99.90
15111;DHT22;7656;51.954;7.998;2024-03-23T05:54:02;8.20;99.90
15111;DHT22;7656;51.954;7.998;2024-03-23T05:58:23;8.20;99.90
15111;DHT22;7656;51.954;7.998;2024-03-23T06:02:44;8.20;99.90
15111;DHT22;7656;51.954;7.998;2024-03-23T06:07:06;8.20;99.90
15111;DHT22;7656;51.954;7.998;2024-03-23T06:11:34;8.10;99.90
15111;DHT22;7656;51.954;7.998;2024-03-23T06:15:55;8.00;99.90
15111;DHT22;7656;51.954;7.998;2024-03-23T06:20:17;7.90;99.90
15111;DHT22;7656;51.954;7.998;2024-03-23T06:24:38;7.90;99.90
15111;DHT22;7656;51.954;7.998;2024-03-23T06:28:59;7.90;99.90
15111;DHT22;7656;51.954;7.998;2024-03-23T06:33:20;7.90;99.90
15111;DHT22;7656;51.954;7.998;2024-03-23T06:37:41;7.90;99.90
15111;DHT22;7656;51.954;7.998;2024-03-23T06:42:02;8.00;99.90
15111;DHT22;7656;51.954;7.998;2024-03-23T06:46:24;8.50;99.90
15111;DHT22;7656;51.954;7.998;2024-03-23T06:50:46;8.90;99.90
15111;DHT22;7656;51.954;7.998;2024-03-23T06:55:08;9.80;99.90
15111;DHT22;7656;51.954;7.998;2024-03-23T06:59:29;10.70;99.90
15111;DHT22;7656;51.954;7.998;2024-03-23T07:03:50;10.60;99.90
15111;DHT22;7656;51.954;7.998;2024-03-23T07:08:11;9.80;99.90
15111;DHT22;7656;51.954;7.998;2024-03-23T07:12:32;9.60;99.90
15111;DHT22;7656;51.954;7.998;2024-03-23T07:16:53;9.70;99.90
15111;DHT22;7656;51.954;7.998;2024-03-23T07:25:36;12.90;99.90
15111;DHT22;7656;51.954;7.998;2024-03-23T08:35:30;25.00;93.00
15111;DHT22;7656;51.954;7.998;2024-03-23T08:39:51;24.50;93.90
15111;DHT22;7656;51.954;7.998;2024-03-23T08:44:12;22.20;96.10
15111;DHT22;7656;51.954;7.998;2024-03-23T08:48:35;19.30;99.90
15111;DHT22;7656;51.954;7.998;2024-03-23T08:52:57;17.60;99.90
15111;DHT22;7656;51.954;7.998;2024-03-23T08:57:18;15.00;99.90
15111;DHT22;7656;51.954;7.998;2024-03-23T09:01:39;13.60;99.90
15111;DHT22;7656;51.954;7.998;2024-03-23T09:06:00;14.10;99.90
15111;DHT22;7656;51.954;7.998;2024-03-23T09:10:22;13.30;99.90
15111;DHT22;7656;51.954;7.998;2024-03-23T09:14:43;12.30;99.90
15111;DHT22;7656;51.954;7.998;2024-03-23T09:19:04;11.90;99.90
15111;DHT22;7656;51.954;7.998;2024-03-23T09:32:08;16.30;99.90
15111;DHT22;7656;51.954;7.998;2024-03-23T09:36:29;15.80;99.90
15111;DHT22;7656;51.954;7.998;2024-03-23T09:40:53;14.50;99.90
15111;DHT22;7656;51.954;7.998;2024-03-23T09:45:20;13.60;99.90
15111;DHT22;7656;51.954;7.998;2024-03-23T09:49:42;12.70;99.90
15111;DHT22;7656;51.954;7.998;2024-03-23T09:54:03;12.00;99.90
15111;DHT22;7656;51.954;7.998;2024-03-23T09:58:24;13.70;99.90
15111;DHT22;7656;51.954;7.998;2024-03-23T10:02:45;13.60;99.90
15111;DHT22;7656;51.954;7.998;2024-03-23T10:07:18;13.80;99.90
15111;DHT22;7656;51.954;7.998;2024-03-23T10:11:40;12.80;99.90
15111;DHT22;7656;51.954;7.998;2024-03-23T10:16:01;11.80;99.90
15111;DHT22;7656;51.954;7.998;2024-03-23T10:20:23;11.50;99.90
15111;DHT22;7656;51.954;7.998;2024-03-23T10:33:32;20.70;99.90
15111;DHT22;7656;51.954;7.998;2024-03-23T10:37:54;22.40;99.90
15111;DHT22;7656;51.954;7.998;2024-03-23T10:42:15;23.50;99.20
15111;DHT22;7656;51.954;7.998;2024-03-23T10:46:37;22.10;97.80
15111;DHT22;7656;51.954;7.998;2024-03-23T10:50:58;22.50;97.50
15111;DHT22;7656;51.954;7.998;2024-03-23T10:55:22;23.70;94.10
15111;DHT22;7656;51.954;7.998;2024-03-23T10:59:45;25.00;92.40
15111;DHT22;7656;51.954;7.998;2024-03-23T11:04:07;26.20;90.70
15111;DHT22;7656;51.954;7.998;2024-03-23T11:08:45;25.30;86.70
15111;DHT22;7656;51.954;7.998;2024-03-23T11:13:22;21.40;90.40
15111;DHT22;7656;51.954;7.998;2024-03-23T11:18:05;21.30;92.40
15111;DHT22;7656;51.954;7.998;2024-03-23T11:22:44;21.60;91.50
15111;DHT22;7656;51.954;7.998;2024-03-23T11:27:16;21.50;91.90
15111;DHT22;7656;51.954;7.998;2024-03-23T11:31:38;20.70;91.30
15111;DHT22;7656;51.954;7.998;2024-03-23T11:35:59;18.30;92.10
15111;DHT22;7656;51.954;7.998;2024-03-23T11:40:21;16.50;94.50
15111;DHT22;7656;51.954;7.998;2024-03-23T11:44:42;16.20;96.40
15111;DHT22;7656;51.954;7.998;2024-03-23T11:49:03;15.60;96.80
15111;DHT22;7656;51.954;7.998;2024-03-23T11:53:25;14.20;99.90
15111;DHT22;7656;51.954;7.998;2024-03-23T11:57:49;12.30;99.90
15111;DHT22;7656;51.954;7.998;2024-03-23T12:02:12;11.00;99.90
15111;DHT22;7656;51.954;7.998;2024-03-23T12:06:36;11.00;99.90
15111;DHT22;7656;51.954;7.998;2024-03-23T12:11:14;11.00;99.90
15111;DHT22;7656;51.954;7.998;2024-03-23T12:15:36;10.90;99.90
15111;DHT22;7656;51.954;7.998;2024-03-23T12:19:57;12.70;99.90
15111;DHT22;7656;51.954;7.998;2024-03-23T12:24:18;16.00;99.90
15111;DHT22;7656;51.954;7.998;2024-03-23T12:28:40;17.80;99.90
15111;DHT22;7656;51.954;7.998;2024-03-23T12:41:44;19.40;94.50
15111;DHT22;7656;51.954;7.998;2024-03-23T12:46:05;17.90;96.40
15111;DHT22;7656;51.954;7.998;2024-03-23T12:50:26;17.20;99.80
15111;DHT22;7656;51.954;7.998;2024-03-23T12:54:47;15.90;99.90
15111;DHT22;7656;51.954;7.998;2024-03-23T12:59:08;14.00;99.90
15111;DHT22;7656;51.954;7.998;2024-03-23T13:03:29;13.70;99.90
15111;DHT22;7656;51.954;7.998;2024-03-23T13:07:50;12.00;99.90
15111;DHT22;7656;51.954;7.998;2024-03-23T13:12:12;10.20;99.90
15111;DHT22;7656;51.954;7.998;2024-03-23T13:16:33;12.30;99.90
15111;DHT22;7656;51.954;7.998;2024-03-23T13:20:54;15.60;99.90
15111;DHT22;7656;51.954;7.998;2024-03-23T13:25:15;17.60;99.90
15111;DHT22;7656;51.954;7.998;2024-03-23T13:29:36;16.60;99.90
15111;DHT22;7656;51.954;7.998;2024-03-23T13:34:01;17.40;99.90
15111;DHT22;7656;51.954;7.998;2024-03-23T13:38:22;18.20;99.90
15111;DHT22;7656;51.954;7.998;2024-03-23T13:42:43;16.60;99.90
15111;DHT22;7656;51.954;7.998;2024-03-23T13:47:05;15.50;99.90
15111;DHT22;7656;51.954;7.998;2024-03-23T13:51:26;14.10;99.90
15111;DHT22;7656;51.954;7.998;2024-03-23T13:55:47;13.50;99.90
15111;DHT22;7656;51.954;7.998;2024-03-23T14:00:09;12.30;99.90
15111;DHT22;7656;51.954;7.998;2024-03-23T14:04:33;11.50;99.90
15111;DHT22;7656;51.954;7.998;2024-03-23T14:08:54;10.90;99.90
15111;DHT22;7656;51.954;7.998;2024-03-23T14:13:16;10.80;99.90
15111;DHT22;7656;51.954;7.998;2024-03-23T14:17:37;10.40;99.90
15111;DHT22;7656;51.954;7.998;2024-03-23T14:21:58;10.20;99.90
15111;DHT22;7656;51.954;7.998;2024-03-23T14:26:19;9.70;99.90
15111;DHT22;7656;51.954;7.998;2024-03-23T14:30:41;9.50;99.90
15111;DHT22;7656;51.954;7.998;2024-03-23T14:35:03;9.80;99.90
15111;DHT22;7656;51.954;7.998;2024-03-23T14:39:24;10.50;99.90
15111;DHT22;7656;51.954;7.998;2024-03-23T14:43:45;11.60;99.90
15111;DHT22;7656;51.954;7.998;2024-03-23T14:48:09;12.70;99.90
15111;DHT22;7656;51.954;7.998;2024-03-23T14:52:31;13.30;99.90
15111;DHT22;7656;51.954;7.998;2024-03-23T14:56:52;13.40;99.90
15111;DHT22;7656;51.954;7.998;2024-03-23T15:01:14;13.20;99.90
15111;DHT22;7656;51.954;7.998;2024-03-23T15:05:35;13.10;99.90
15111;DHT22;7656;51.954;7.998;2024-03-23T15:09:56;13.10;99.90
15111;DHT22;7656;51.954;7.998;2024-03-23T15:14:17;13.10;99.90
15111;DHT22;7656;51.954;7.998;2024-03-23T15:18:38;13.20;99.90
15111;DHT22;7656;51.954;7.998;2024-03-23T15:23:00;13.10;99.90
15111;DHT22;7656;51.954;7.998;2024-03-23T15:27:21;12.50;99.90
15111;DHT22;7656;51.954;7.998;2024-03-23T15:31:43;12.10;99.90
15111;DHT22;7656;51.954;7.998;2024-03-23T15:36:05;12.10;99.90
15111;DHT22;7656;51.954;7.998;2024-03-23T15:40:26;11.80;99.90
15111;DHT22;7656;51.954;7.998;2024-03-23T15:44:48;11.40;99.90
15111;DHT22;7656;51.954;7.998;2024-03-23T15:49:09;11.60;99.90
15111;DHT22;7656;51.954;7.998;2024-03-23T15:53:30;11.00;99.90
15111;DHT22;7656;51.954;7.998;2024-03-23T15:57:52;10.90;99.90
15111;DHT22;7656;51.954;7.998;2024-03-23T16:02:13;10.30;99.90
15111;DHT22;7656;51.954;7.998;2024-03-23T16:06:34;10.30;99.90
15111;DHT22;7656;51.954;7.998;2024-03-23T16:11:03;10.50;99.90
15111;DHT22;7656;51.954;7.998;2024-03-23T16:15:25;10.80;99.90
15111;DHT22;7656;51.954;7.998;2024-03-23T16:19:46;10.80;99.90
15111;DHT22;7656;51.954;7.998;2024-03-23T16:24:07;10.90;99.90
15111;DHT22;7656;51.954;7.998;2024-03-23T16:28:30;11.10;99.90
15111;DHT22;7656;51.954;7.998;2024-03-23T16:32:52;10.90;99.90
15111;DHT22;7656;51.954;7.998;2024-03-23T16:37:13;10.80;99.90
15111;DHT22;7656;51.954;7.998;2024-03-23T16:41:34;10.70;99.90
15111;DHT22;7656;51.954;7.998;2024-03-23T16:50:20;10.50;99.90
15111;DHT22;7656;51.954;7.998;2024-03-23T16:54:42;10.30;99.90
15111;DHT22;7656;51.954;7.998;2024-03-23T16:59:03;10.10;99.90
15111;DHT22;7656;51.954;7.998;2024-03-23T17:03:25;10.10;99.90
15111;DHT22;7656;51.954;7.998;2024-03-23T17:07:49;10.20;99.90
15111;DHT22;7656;51.954;7.998;2024-03-23T17:12:10;10.30;99.90
15111;DHT22;7656;51.954;7.998;2024-03-23T17:16:31;10.40;99.90
15111;DHT22;7656;51.954;7.998;2024-03-23T17:20:52;10.00;99.90
15111;DHT22;7656;51.954;7.998;2024-03-23T17:25:13;10.00;99.90
15111;DHT22;7656;51.954;7.998;2024-03-23T17:29:34;9.60;99.90
15111;DHT22;7656;51.954;7.998;2024-03-23T17:33:55;9.30;99.90
15111;DHT22;7656;51.954;7.998;2024-03-23T17:38:16;9.00;99.90
15111;DHT22;7656;51.954;7.998;2024-03-23T17:42:39;8.50;99.90
15111;DHT22;7656;51.954;7.998;2024-03-23T17:47:01;8.10;99.90
15111;DHT22;7656;51.954;7.998;2024-03-23T17:51:22;7.70;99.90
15111;DHT22;7656;51.954;7.998;2024-03-23T17:55:44;7.80;99.90
15111;DHT22;7656;51.954;7.998;2024-03-23T18:00:05;7.60;99.90
15111;DHT22;7656;51.954;7.998;2024-03-23T18:04:32;7.30;99.90
15111;DHT22;7656;51.954;7.998;2024-03-23T18:08:53;7.20;99.90
15111;DHT22;7656;51.954;7.998;2024-03-23T18:13:14;7.10;99.90
15111;DHT22;7656;51.954;7.998;2024-03-23T18:17:35;6.90;99.90
15111;DHT22;7656;51.954;7.998;2024-03-23T18:21:56;6.80;99.90
15111;DHT22;7656;51.954;7.998;2024-03-23T18:26:17;6.50;99.90
15111;DHT22;7656;51.954;7.998;2024-03-23T18:30:38;6.40;99.90
15111;DHT22;7656;51.954;7.998;2024-03-23T18:34:59;6.50;99.90
15111;DHT22;7656;51.954;7.998;2024-03-23T18:39:20;6.60;99.90
15111;DHT22;7656;51.954;7.998;2024-03-23T18:43:46;6.50;99.90
15111;DHT22;7656;51.954;7.998;2024-03-23T18:48:10;6.30;99.90
15111;DHT22;7656;51.954;7.998;2024-03-23T18:52:31;6.40;99.90
15111;DHT22;7656;51.954;7.998;2024-03-23T18:56:52;6.40;99.90
15111;DHT22;7656;51.954;7.998;2024-03-23T19:01:13;6.30;99.90
15111;DHT22;7656;51.954;7.998;2024-03-23T19:05:34;6.30;99.90
15111;DHT22;7656;51.954;7.998;2024-03-23T19:09:55;6.30;99.90
15111;DHT22;7656;51.954;7.998;2024-03-23T19:14:16;6.20;99.90
15111;DHT22;7656;51.954;7.998;2024-03-23T19:18:37;6.30;99.90
15111;DHT22;7656;51.954;7.998;2024-03-23T19:22:58;6.20;99.90
15111;DHT22;7656;51.954;7.998;2024-03-23T19:27:20;6.00;99.90
15111;DHT22;7656;51.954;7.998;2024-03-23T19:31:41;6.10;99.90
15111;DHT22;7656;51.954;7.998;2024-03-23T19:36:02;5.90;99.90
15111;DHT22;7656;51.954;7.998;2024-03-23T19:40:24;6.00;99.90
15111;DHT22;7656;51.954;7.998;2024-03-23T19:44:45;5.90;99.90
15111;DHT22;7656;51.954;7.998;2024-03-23T19:49:06;6.00;99.90
15111;DHT22;7656;51.954;7.998;2024-03-23T19:53:27;5.90;99.90
15111;DHT22;7656;51.954;7.998;2024-03-23T19:57:48;5.80;99.90
15111;DHT22;7656;51.954;7.998;2024-03-23T20:02:09;5.90;99.90
15111;DHT22;7656;51.954;7.998;2024-03-23T20:06:30;5.80;99.90
15111;DHT22;7656;51.954;7.998;2024-03-23T20:10:51;5.70;99.90
15111;DHT22;7656;51.954;7.998;2024-03-23T20:15:13;5.70;99.90
15111;DHT22;7656;51.954;7.998;2024-03-23T20:19:34;5.60;99.90
15111;DHT22;7656;51.954;7.998;2024-03-23T20:23:55;5.60;99.90
15111;DHT22;7656;51.954;7.998;2024-03-23T20:28:16;5.50;99.90
15111;DHT22;7656;51.954;7.998;2024-03-23T20:32:37;5.50;99.90
15111;DHT22;7656;51.954;7.998;2024-03-23T20:36:58;5.40;99.90
15111;DHT22;7656;51.954;7.998;2024-03-23T20:41:19;5.50;99.90
15111;DHT22;7656;51.954;7.998;2024-03-23T20:45:41;5.40;99.90
15111;DHT22;7656;51.954;7.998;2024-03-23T20:50:02;5.40;99.90
15111;DHT22;7656;51.954;7.998;2024-03-23T20:54:24;5.60;99.90
15111;DHT22;7656;51.954;7.998;2024-03-23T20:58:46;5.60;99.90
15111;DHT22;7656;51.954;7.998;2024-03-23T21:03:07;5.60;99.90
15111;DHT22;7656;51.954;7.998;2024-03-23T21:07:28;5.70;99.90
15111;DHT22;7656;51.954;7.998;2024-03-23T21:11:49;5.70;99.90
15111;DHT22;7656;51.954;7.998;2024-03-23T21:16:10;5.50;99.90
15111;DHT22;7656;51.954;7.998;2024-03-23T21:20:31;5.50;99.90
15111;DHT22;7656;51.954;7.998;2024-03-23T21:24:52;5.60;99.90
15111;DHT22;7656;51.954;7.998;2024-03-23T21:29:13;5.60;99.90
15111;DHT22;7656;51.954;7.998;2024-03-23T21:33:34;5.60;99.90
15111;DHT22;7656;51.954;7.998;2024-03-23T21:37:57;5.70;99.90
15111;DHT22;7656;51.954;7.998;2024-03-23T21:42:18;5.60;99.90
15111;DHT22;7656;51.954;7.998;2024-03-23T21:46:39;5.50;99.90
15111;DHT22;7656;51.954;7.998;2024-03-23T21:51:01;5.50;99.90
15111;DHT22;7656;51.954;7.998;2024-03-23T21:55:23;5.60;99.90
15111;DHT22;7656;51.954;7.998;2024-03-23T21:59:45;5.50;99.90
15111;DHT22;7656;51.954;7.998;2024-03-23T22:04:08;5.60;99.90
15111;DHT22;7656;51.954;7.998;2024-03-23T22:08:30;5.50;99.90
15111;DHT22;7656;51.954;7.998;2024-03-23T22:12:51;5.60;99.90
15111;DHT22;7656;51.954;7.998;2024-03-23T22:17:13;5.30;99.90
15111;DHT22;7656;51.954;7.998;2024-03-23T22:21:34;5.40;99.90
15111;DHT22;7656;51.954;7.998;2024-03-23T22:25:56;5.60;99.90
15111;DHT22;7656;51.954;7.998;2024-03-23T22:30:19;5.50;99.90
15111;DHT22;7656;51.954;7.998;2024-03-23T22:34:41;5.40;99.90
15111;DHT22;7656;51.954;7.998;2024-03-23T22:39:02;5.20;99.90
15111;DHT22;7656;51.954;7.998;2024-03-23T22:43:25;5.10;99.90
15111;DHT22;7656;51.954;7.998;2024-03-23T22:47:47;5.20;99.90
15111;DHT22;7656;51.954;7.998;2024-03-23T22:52:08;5.10;99.90
15111;DHT22;7656;51.954;7.998;2024-03-23T22:56:29;5.10;99.90
15111;DHT22;7656;51.954;7.998;2024-03-23T23:00:51;5.10;99.90
15111;DHT22;7656;51.954;7.998;2024-03-23T23:05:15;4.80;99.90
15111;DHT22;7656;51.954;7.998;2024-03-23T23:09:36;5.00;99.90
15111;DHT22;7656;51.954;7.998;2024-03-23T23:13:57;5.10;99.90
15111;DHT22;7656;51.954;7.998;2024-03-23T23:18:18;5.20;99.90
15111;DHT22;7656;51.954;7.998;2024-03-23T23:22:39;5.30;99.90
15111;DHT22;7656;51.954;7.998;2024-03-23T23:27:00;4.90;99.90
15111;DHT22;7656;51.954;7.998;2024-03-23T23:31:21;4.80;99.90
15111;DHT22;7656;51.954;7.998;2024-03-23T23:35:42;4.90;99.90
15111;DHT22;7656;51.954;7.998;2024-03-23T23:40:04;4.90;99.90
15111;DHT22;7656;51.954;7.998;2024-03-23T23:44:25;4.80;99.90
15111;DHT22;7656;51.954;7.998;2024-03-23T23:48:47;4.90;99.90
15111;DHT22;7656;51.954;7.998;2024-03-23T23:53:08;4.90;99.90
15111;DHT22;7656;51.954;7.998;2024-03-23T23:57:29;5.10;99.90
